Time;durP1;ratioP1;P1;durP2;ratioP2;P2;SDS_P1;SDS_P2;PMS_P1;PMS_P2;Temp;Humidity;BMP_temperature;BMP_pressure;BME280_temperature;BME280_humidity;BME280_pressure;Samples;Min_cycle;Max_cycle;Signal;HPM_P1;HPM_P2
2022/08/17 00:00:13;;;;;;;0.75;0.75;;;;;;;;;;4950031;28;20078;-81
2022/08/17 00:03:03;;;;;;;0.82;0.73;;;;;;;;;;4949368;28;20138;-80
2022/08/17 00:05:33;;;;;;;0.85;0.60;;;;;;;;;;4951163;28;20553;-80
2022/08/17 00:08:02;;;;;;;2.15;0.93;;;;;;;;;;4947698;28;20485;-80
2022/08/17 00:10:31;;;;;;;2.25;1.00;;;;;;;;;;4948711;28;20106;-81
2022/08/17 00:12:59;;;;;;;0.73;0.55;;;;;;;;;;4948964;28;20488;-81
2022/08/17 00:15:28;;;;;;;0.65;0.63;;;;;;;;;;4948063;28;20529;-80
2022/08/17 00:17:56;;;;;;;0.80;0.70;;;;;;;;;;4939034;28;20071;-82
2022/08/17 00:20:25;;;;;;;1.08;0.70;;;;;;;;;;4948464;28;20061;-81
2022/08/17 00:23:08;;;;;;;2.25;0.75;;;;;;;;;;4949994;28;20407;-81
2022/08/17 00:25:37;;;;;;;1.05;0.73;;;;;;;;;;4951429;28;20399;-81
2022/08/17 00:28:05;;;;;;;1.10;0.80;;;;;;;;;;4950478;28;20075;-80
2022/08/17 00:30:34;;;;;;;0.93;0.60;;;;;;;;;;4951486;28;20086;-83
2022/08/17 00:33:19;;;;;;;0.70;0.70;;;;;;;;;;4954554;28;20134;-81
2022/08/17 00:35:49;;;;;;;0.65;0.57;;;;;;;;;;4937905;28;20578;-80
2022/08/17 00:38:19;;;;;;;1.08;0.73;;;;;;;;;;4945278;28;20476;-81
2022/08/17 00:40:49;;;;;;;1.30;0.82;;;;;;;;;;4948392;28;20075;-82
2022/08/17 00:43:20;;;;;;;2.17;0.75;;;;;;;;;;4945112;28;20404;-82
2022/08/17 00:45:49;;;;;;;1.25;0.80;;;;;;;;;;4947545;28;20111;-81
2022/08/17 00:48:17;;;;;;;0.95;0.52;;;;;;;;;;4945726;28;20087;-80
2022/08/17 00:50:59;;;;;;;2.22;1.38;;;;;;;;;;4949809;28;20052;-83
2022/08/17 00:53:31;;;;;;;0.95;0.80;;;;;;;;;;4951019;28;20055;-81
2022/08/17 00:56:00;;;;;;;1.63;0.60;;;;;;;;;;4951083;28;20170;-81
2022/08/17 00:58:29;;;;;;;0.40;0.40;;;;;;;;;;4954679;28;20129;-80
2022/08/17 01:01:05;;;;;;;0.60;0.60;;;;;;;;;;4954618;28;20107;-80
2022/08/17 01:03:34;;;;;;;1.35;0.65;;;;;;;;;;4954139;28;20302;-80
2022/08/17 01:06:06;;;;;;;2.42;0.70;;;;;;;;;;4949669;28;20075;-81
2022/08/17 01:08:39;;;;;;;0.73;0.43;;;;;;;;;;4954824;28;20054;-81
2022/08/17 01:11:08;;;;;;;0.40;0.40;;;;;;;;;;4951010;28;20043;-80
2022/08/17 01:13:37;;;;;;;1.80;0.85;;;;;;;;;;4952363;28;20090;-81
2022/08/17 01:16:12;;;;;;;1.02;0.68;;;;;;;;;;4952142;28;20166;-82
2022/08/17 01:18:41;;;;;;;2.30;0.77;;;;;;;;;;4951608;28;20126;-81
2022/08/17 01:21:11;;;;;;;3.90;1.60;;;;;;;;;;4952615;28;20075;-81
2022/08/17 01:23:42;;;;;;;1.27;1.08;;;;;;;;;;4951324;28;20126;-80
2022/08/17 01:26:10;;;;;;;1.08;0.50;;;;;;;;;;4956608;28;20087;-80
2022/08/17 01:28:39;;;;;;;0.68;0.68;;;;;;;;;;4951012;28;20055;-81
2022/08/17 01:31:23;;;;;;;1.45;0.80;;;;;;;;;;4962363;28;20059;-81
2022/08/17 01:33:51;;;;;;;0.80;0.40;;;;;;;;;;4946303;28;20147;-80
2022/08/17 01:36:19;;;;;;;0.50;0.32;;;;;;;;;;4947651;28;20051;-80
2022/08/17 01:38:49;;;;;;;0.70;0.70;;;;;;;;;;4949224;28;20125;-81
2022/08/17 01:41:18;;;;;;;1.55;1.13;;;;;;;;;;4950061;28;20051;-81
2022/08/17 01:43:49;;;;;;;0.60;0.60;;;;;;;;;;4949133;28;20130;-81
2022/08/17 01:46:20;;;;;;;1.17;0.68;;;;;;;;;;4947483;28;20134;-80
2022/08/17 01:48:50;;;;;;;0.60;0.60;;;;;;;;;;4950593;28;20134;-80
2022/08/17 01:51:18;;;;;;;0.60;0.60;;;;;;;;;;4946885;28;20139;-81
2022/08/17 01:53:49;;;;;;;1.33;0.70;;;;;;;;;;4950081;28;20122;-81
2022/08/17 01:56:20;;;;;;;0.77;0.65;;;;;;;;;;4945894;28;20056;-80
2022/08/17 01:58:48;;;;;;;1.45;0.77;;;;;;;;;;4964292;28;20085;-81
2022/08/17 02:01:17;;;;;;;0.60;0.47;;;;;;;;;;4947094;28;20135;-80
2022/08/17 02:03:46;;;;;;;0.45;0.35;;;;;;;;;;4950788;28;20052;-80
2022/08/17 02:06:29;;;;;;;0.70;0.68;;;;;;;;;;4949647;28;20059;-82
2022/08/17 02:09:13;;;;;;;0.60;0.55;;;;;;;;;;4947556;28;20409;-80
2022/08/17 02:11:46;;;;;;;1.70;0.80;;;;;;;;;;4950671;28;20416;-80
2022/08/17 02:14:14;;;;;;;0.82;0.68;;;;;;;;;;4946727;28;20130;-82
2022/08/17 02:16:43;;;;;;;0.77;0.40;;;;;;;;;;4949803;28;20051;-81
2022/08/17 02:19:12;;;;;;;2.10;0.77;;;;;;;;;;4947521;28;20083;-80
2022/08/17 02:21:41;;;;;;;0.35;0.30;;;;;;;;;;4950102;28;20047;-82
2022/08/17 02:24:12;;;;;;;0.82;0.60;;;;;;;;;;4948308;28;20098;-80
2022/08/17 02:26:40;;;;;;;0.45;0.45;;;;;;;;;;4949674;28;20090;-80
2022/08/17 02:29:13;;;;;;;0.77;0.45;;;;;;;;;;4948963;28;20047;-81
2022/08/17 02:31:41;;;;;;;0.77;0.68;;;;;;;;;;4955697;28;20054;-80
2022/08/17 02:34:10;;;;;;;1.38;0.75;;;;;;;;;;4940653;28;20122;-80
2022/08/17 02:36:38;;;;;;;3.33;1.05;;;;;;;;;;4949112;28;20397;-82
2022/08/17 02:39:08;;;;;;;0.47;0.45;;;;;;;;;;4949159;28;20482;-80
2022/08/17 02:41:37;;;;;;;1.42;0.88;;;;;;;;;;4947558;28;20082;-81
2022/08/17 02:44:05;;;;;;;0.60;0.40;;;;;;;;;;4951278;28;20079;-80
2022/08/17 02:46:35;;;;;;;0.70;0.50;;;;;;;;;;4947444;28;20052;-80
2022/08/17 02:49:04;;;;;;;0.95;0.50;;;;;;;;;;4950557;28;20070;-82
2022/08/17 02:51:34;;;;;;;0.50;0.50;;;;;;;;;;4948058;28;20059;-80
2022/08/17 02:54:02;;;;;;;2.85;0.60;;;;;;;;;;4950478;28;20074;-80
2022/08/17 02:56:50;;;;;;;0.50;0.45;;;;;;;;;;4952056;28;20421;-80
2022/08/17 02:59:19;;;;;;;1.42;0.95;;;;;;;;;;4952569;28;20662;-81
2022/08/17 03:01:49;;;;;;;0.60;0.43;;;;;;;;;;4942531;28;20078;-80
2022/08/17 03:04:17;;;;;;;0.65;0.40;;;;;;;;;;4947083;28;20047;-81
2022/08/17 03:06:45;;;;;;;0.52;0.52;;;;;;;;;;4952429;28;20674;-80
2022/08/17 03:09:15;;;;;;;1.92;0.90;;;;;;;;;;4947071;28;20135;-82
2022/08/17 03:11:43;;;;;;;0.60;0.38;;;;;;;;;;4949463;28;20138;-80
2022/08/17 03:14:13;;;;;;;0.82;0.82;;;;;;;;;;4945618;28;20350;-81
2022/08/17 03:16:41;;;;;;;0.38;0.38;;;;;;;;;;4948300;28;20134;-80
2022/08/17 03:19:11;;;;;;;0.90;0.85;;;;;;;;;;4948972;28;20499;-80
2022/08/17 03:21:40;;;;;;;0.77;0.47;;;;;;;;;;4952344;28;20486;-80
2022/08/17 03:24:08;;;;;;;1.08;0.95;;;;;;;;;;4952262;28;20153;-81
2022/08/17 03:26:37;;;;;;;0.60;0.50;;;;;;;;;;4953740;28;20066;-80
2022/08/17 03:29:05;;;;;;;3.58;0.68;;;;;;;;;;4952112;28;20830;-81
2022/08/17 03:31:34;;;;;;;0.80;0.55;;;;;;;;;;4956469;28;20090;-80
2022/08/17 03:34:04;;;;;;;0.93;0.82;;;;;;;;;;4947781;28;20110;-80
2022/08/17 03:36:34;;;;;;;7.95;0.65;;;;;;;;;;4949413;28;20078;-80
2022/08/17 03:39:03;;;;;;;1.08;0.63;;;;;;;;;;4949252;28;20478;-80
2022/08/17 03:41:31;;;;;;;1.05;0.80;;;;;;;;;;4946414;28;20129;-81
2022/08/17 03:44:00;;;;;;;0.77;0.52;;;;;;;;;;4949153;28;20102;-80
2022/08/17 03:57:34;;;;;;;1.20;0.82;;;;;;;;;;4951650;28;20090;-81
2022/08/17 04:00:03;;;;;;;0.30;0.22;;;;;;;;;;4949384;28;20082;-81
2022/08/17 04:02:32;;;;;;;0.28;0.28;;;;;;;;;;4949442;28;20364;-80
2022/08/17 04:05:01;;;;;;;1.20;0.65;;;;;;;;;;4939219;28;20134;-80
2022/08/17 04:07:31;;;;;;;2.90;0.50;;;;;;;;;;4949040;28;20526;-80
2022/08/17 04:10:00;;;;;;;0.60;0.52;;;;;;;;;;4949953;28;20175;-82
2022/08/17 04:12:30;;;;;;;0.80;0.73;;;;;;;;;;4949455;28;20118;-81
2022/08/17 04:14:59;;;;;;;0.40;0.30;;;;;;;;;;4949864;28;20487;-81
2022/08/17 04:17:28;;;;;;;0.60;0.50;;;;;;;;;;4949788;28;20055;-81
2022/08/17 04:19:56;;;;;;;0.30;0.30;;;;;;;;;;4951595;28;20059;-81
2022/08/17 04:22:25;;;;;;;0.50;0.40;;;;;;;;;;4951198;28;20130;-80
2022/08/17 04:25:02;;;;;;;2.78;0.90;;;;;;;;;;4953825;28;20558;-80
2022/08/17 04:27:30;;;;;;;0.55;0.40;;;;;;;;;;4955473;28;20089;-80
2022/08/17 04:29:59;;;;;;;0.95;0.80;;;;;;;;;;4955363;28;20482;-80
2022/08/17 04:32:27;;;;;;;0.50;0.50;;;;;;;;;;4954065;28;20054;-83
2022/08/17 04:35:18;;;;;;;1.75;0.45;;;;;;;;;;4953524;28;20053;-81
2022/08/17 04:37:46;;;;;;;1.27;0.50;;;;;;;;;;4955284;28;20582;-81
2022/08/17 04:43:03;;;;;;;1.02;0.70;;;;;;;;;;4955209;28;20130;-81
2022/08/17 04:45:31;;;;;;;0.77;0.50;;;;;;;;;;4954537;28;20130;-80
2022/08/17 04:48:00;;;;;;;10.88;1.00;;;;;;;;;;4949308;28;20106;-80
2022/08/17 04:50:28;;;;;;;0.47;0.38;;;;;;;;;;4954737;28;20133;-81
2022/08/17 04:52:57;;;;;;;0.70;0.52;;;;;;;;;;4954626;28;20134;-82
2022/08/17 04:55:27;;;;;;;0.32;0.30;;;;;;;;;;4954352;28;20101;-81
2022/08/17 04:57:55;;;;;;;0.68;0.57;;;;;;;;;;4954467;28;20078;-81
2022/08/17 05:00:24;;;;;;;1.00;0.90;;;;;;;;;;4954230;28;20138;-81
2022/08/17 05:02:54;;;;;;;0.90;0.52;;;;;;;;;;4954721;28;20094;-80
2022/08/17 05:05:25;;;;;;;1.10;0.65;;;;;;;;;;4956529;28;20078;-80
2022/08/17 05:07:53;;;;;;;0.45;0.30;;;;;;;;;;4954153;28;20063;-80
2022/08/17 05:10:21;;;;;;;1.48;0.77;;;;;;;;;;4954078;28;20086;-82
2022/08/17 05:12:59;;;;;;;1.88;0.45;;;;;;;;;;4947080;28;20138;-81
2022/08/17 05:15:28;;;;;;;0.90;0.32;;;;;;;;;;4949003;28;20059;-82
2022/08/17 05:18:00;;;;;;;0.45;0.30;;;;;;;;;;4950148;28;20135;-80
2022/08/17 05:20:30;;;;;;;0.80;0.40;;;;;;;;;;4951199;28;20502;-81
2022/08/17 05:22:59;;;;;;;1.02;0.40;;;;;;;;;;4941560;28;20082;-80
2022/08/17 05:25:29;;;;;;;0.57;0.50;;;;;;;;;;4949351;28;20139;-81
2022/08/17 05:28:03;;;;;;;1.80;0.50;;;;;;;;;;4951012;28;20070;-80
2022/08/17 05:30:33;;;;;;;0.13;0.13;;;;;;;;;;4948771;28;20047;-82
2022/08/17 05:33:03;;;;;;;0.40;0.40;;;;;;;;;;4956612;28;20134;-80
2022/08/17 05:35:32;;;;;;;1.83;0.57;;;;;;;;;;4950620;28;20071;-80
2022/08/17 05:38:01;;;;;;;0.80;0.47;;;;;;;;;;4950499;28;20232;-80
2022/08/17 05:40:29;;;;;;;1.48;0.50;;;;;;;;;;4949648;28;20082;-81
2022/08/17 05:43:09;;;;;;;0.65;0.65;;;;;;;;;;4949501;28;20051;-80
2022/08/17 05:45:39;;;;;;;0.52;0.50;;;;;;;;;;4953556;28;20134;-81
2022/08/17 05:48:24;;;;;;;1.42;0.55;;;;;;;;;;4954196;28;20063;-80
2022/08/17 05:51:15;;;;;;;1.17;0.40;;;;;;;;;;4952352;28;20058;-81
2022/08/17 05:53:49;;;;;;;0.88;0.30;;;;;;;;;;4941540;28;20130;-81
2022/08/17 05:56:22;;;;;;;0.10;0.10;;;;;;;;;;4948160;28;20214;-82
2022/08/17 05:59:04;;;;;;;0.43;0.43;;;;;;;;;;4951731;28;20054;-83
2022/08/17 06:01:35;;;;;;;0.47;0.40;;;;;;;;;;4951142;28;20377;-81
2022/08/17 06:04:13;;;;;;;2.60;0.45;;;;;;;;;;4951290;28;20047;-81
2022/08/17 06:06:46;;;;;;;0.73;0.73;;;;;;;;;;4940774;28;20147;-80
2022/08/17 06:09:19;;;;;;;0.32;0.20;;;;;;;;;;4948944;28;20091;-80
2022/08/17 06:11:58;;;;;;;1.05;0.52;;;;;;;;;;4951481;28;20466;-82
2022/08/17 06:14:36;;;;;;;0.47;0.40;;;;;;;;;;4948095;28;20507;-83
2022/08/17 06:17:06;;;;;;;0.57;0.47;;;;;;;;;;4948067;28;20059;-80
2022/08/17 06:19:39;;;;;;;0.40;0.30;;;;;;;;;;4950802;28;20083;-81
2022/08/17 06:22:08;;;;;;;0.65;0.55;;;;;;;;;;4948110;28;20127;-79
2022/08/17 06:24:38;;;;;;;1.23;0.60;;;;;;;;;;4950255;28;20126;-81
2022/08/17 06:27:09;;;;;;;0.73;0.30;;;;;;;;;;4948760;28;20135;-81
2022/08/17 06:29:42;;;;;;;0.57;0.47;;;;;;;;;;4950578;28;20150;-80
2022/08/17 06:32:13;;;;;;;0.82;0.35;;;;;;;;;;4956576;28;20086;-80
2022/08/17 06:34:42;;;;;;;0.90;0.45;;;;;;;;;;4950246;28;20658;-80
2022/08/17 06:37:20;;;;;;;6.05;1.98;;;;;;;;;;4952320;28;20053;-81
2022/08/17 06:39:52;;;;;;;2.50;0.60;;;;;;;;;;4952415;28;20079;-81
2022/08/17 06:42:29;;;;;;;0.43;0.38;;;;;;;;;;4943838;28;20054;-80
2022/08/17 06:45:23;;;;;;;2.13;0.65;;;;;;;;;;4950240;28;20051;-81
2022/08/17 06:47:55;;;;;;;1.15;0.60;;;;;;;;;;4952166;28;20055;-80
2022/08/17 06:50:28;;;;;;;0.82;0.60;;;;;;;;;;4953214;28;20129;-80
2022/08/17 06:52:58;;;;;;;0.95;0.38;;;;;;;;;;4949746;28;20099;-81
2022/08/17 06:55:29;;;;;;;2.15;0.70;;;;;;;;;;4949155;28;20055;-82
2022/08/17 06:58:06;;;;;;;1.02;0.63;;;;;;;;;;4952769;28;20082;-80
2022/08/17 07:00:46;;;;;;;0.80;0.80;;;;;;;;;;4960987;28;20054;-82
2022/08/17 07:03:19;;;;;;;0.88;0.63;;;;;;;;;;4950504;28;20051;-80
2022/08/17 07:05:51;;;;;;;0.95;0.50;;;;;;;;;;4952188;28;20535;-80
2022/08/17 07:08:23;;;;;;;0.73;0.68;;;;;;;;;;4946043;28;20488;-82
2022/08/17 07:11:01;;;;;;;1.35;0.73;;;;;;;;;;4955555;28;20043;-82
2022/08/17 07:13:38;;;;;;;0.25;0.25;;;;;;;;;;4952433;28;20404;-80
2022/08/17 07:16:13;;;;;;;1.55;0.38;;;;;;;;;;4945704;28;20121;-81
2022/08/17 07:18:42;;;;;;;1.00;0.80;;;;;;;;;;4952433;28;20106;-82
2022/08/17 07:21:17;;;;;;;1.42;0.75;;;;;;;;;;4951795;28;20499;-82
2022/08/17 07:23:59;;;;;;;0.35;0.35;;;;;;;;;;4946931;28;20082;-81
2022/08/17 07:26:28;;;;;;;3.70;0.95;;;;;;;;;;4952096;28;20051;-83
2022/08/17 07:28:56;;;;;;;0.60;0.60;;;;;;;;;;4947440;28;20126;-81
2022/08/17 07:31:27;;;;;;;0.93;0.73;;;;;;;;;;4949788;28;20071;-82
2022/08/17 07:34:00;;;;;;;3.83;0.80;;;;;;;;;;4947581;28;20126;-79
2022/08/17 07:36:32;;;;;;;0.98;0.63;;;;;;;;;;4953586;28;20055;-85
2022/08/17 07:39:01;;;;;;;0.63;0.55;;;;;;;;;;4956165;28;20538;-80
2022/08/17 07:41:34;;;;;;;0.85;0.68;;;;;;;;;;4946405;28;20167;-81
2022/08/17 07:44:23;;;;;;;1.02;0.68;;;;;;;;;;4950148;28;20053;-80
2022/08/17 07:49:43;;;;;;;1.55;1.27;;;;;;;;;;4949477;28;20051;-82
2022/08/17 07:52:13;;;;;;;1.60;1.10;;;;;;;;;;4944335;28;20059;-82
2022/08/17 07:55:22;;;;;;;1.38;0.82;;;;;;;;;;4951419;28;20078;-80
2022/08/17 07:57:56;;;;;;;0.95;0.80;;;;;;;;;;4951663;28;20073;-82
2022/08/17 08:00:25;;;;;;;1.23;0.90;;;;;;;;;;4950988;28;20079;-81
2022/08/17 08:03:06;;;;;;;0.70;0.70;;;;;;;;;;4946576;28;20059;-80
2022/08/17 08:05:34;;;;;;;1.00;0.70;;;;;;;;;;4946103;28;20506;-80
2022/08/17 08:08:28;;;;;;;1.63;0.82;;;;;;;;;;4954853;28;20055;-81
2022/08/17 08:11:06;;;;;;;3.97;0.85;;;;;;;;;;4951718;28;20488;-82
2022/08/17 08:13:41;;;;;;;1.63;1.35;;;;;;;;;;4951658;28;20094;-81
2022/08/17 08:16:16;;;;;;;1.48;0.90;;;;;;;;;;4946106;28;20051;-81
2022/08/17 08:18:46;;;;;;;0.63;0.60;;;;;;;;;;4951666;28;20051;-81
2022/08/17 08:21:28;;;;;;;1.00;0.90;;;;;;;;;;4951696;28;20502;-80
2022/08/17 08:24:00;;;;;;;1.23;0.95;;;;;;;;;;4951985;28;20114;-81
2022/08/17 08:26:32;;;;;;;1.02;0.90;;;;;;;;;;4951247;28;20086;-84
2022/08/17 08:29:07;;;;;;;2.72;1.23;;;;;;;;;;4951483;28;20087;-81
2022/08/17 08:31:36;;;;;;;;;;;;;;;;;;4946825;28;20515;-81
2022/08/17 08:34:13;;;;;;;1.08;0.95;;;;;;;;;;4951704;28;19934;-81
2022/08/17 08:37:05;;;;;;;2.40;1.40;;;;;;;;;;4947765;28;20055;-81
2022/08/17 08:39:51;;;;;;;1.10;0.82;;;;;;;;;;4946229;28;20051;-82
2022/08/17 08:42:24;;;;;;;4.00;1.13;;;;;;;;;;4938618;28;20491;-81
2022/08/17 08:44:58;;;;;;;1.33;0.73;;;;;;;;;;4945026;28;20362;-81
2022/08/17 08:47:37;;;;;;;3.65;0.75;;;;;;;;;;4948672;28;20062;-81
2022/08/17 08:50:16;;;;;;;3.50;0.80;;;;;;;;;;4948405;28;20055;-82
2022/08/17 08:53:10;;;;;;;0.95;0.75;;;;;;;;;;4951841;28;20142;-81
2022/08/17 08:55:45;;;;;;;1.60;0.70;;;;;;;;;;4950727;28;20059;-82
2022/08/17 08:58:16;;;;;;;2.35;0.70;;;;;;;;;;4948037;28;20059;-83
2022/08/17 09:01:14;;;;;;;1.52;0.85;;;;;;;;;;4951167;28;20058;-81
2022/08/17 09:03:49;;;;;;;0.88;0.75;;;;;;;;;;4951674;28;20546;-82
2022/08/17 09:06:26;;;;;;;2.72;1.00;;;;;;;;;;4954544;28;20137;-81
2022/08/17 09:09:10;;;;;;;1.05;0.85;;;;;;;;;;4955254;28;20137;-81
2022/08/17 09:11:43;;;;;;;1.40;1.17;;;;;;;;;;4952341;28;20134;-83
2022/08/17 09:14:35;;;;;;;1.58;0.88;;;;;;;;;;4950071;28;20461;-82
2022/08/17 09:17:17;;;;;;;1.10;0.93;;;;;;;;;;4953924;28;20541;-81
2022/08/17 09:19:49;;;;;;;3.15;1.45;;;;;;;;;;4954894;28;20055;-81
2022/08/17 09:22:24;;;;;;;2.10;0.93;;;;;;;;;;4954340;28;20566;-82
2022/08/17 09:24:58;;;;;;;0.90;0.65;;;;;;;;;;4954712;28;20415;-81
2022/08/17 09:27:28;;;;;;;1.48;0.90;;;;;;;;;;4973600;28;20052;-81
2022/08/17 09:29:59;;;;;;;3.08;1.10;;;;;;;;;;4974138;28;20055;-81
2022/08/17 09:32:34;;;;;;;3.80;1.00;;;;;;;;;;4973896;28;20508;-84
2022/08/17 09:35:06;;;;;;;2.20;1.20;;;;;;;;;;4972444;28;20082;-81
2022/08/17 09:37:38;;;;;;;1.60;0.88;;;;;;;;;;4973617;28;20047;-81
2022/08/17 09:40:11;;;;;;;1.08;0.88;;;;;;;;;;4973234;28;20091;-81
2022/08/17 09:42:44;;;;;;;1.27;0.98;;;;;;;;;;4973408;28;20058;-81
2022/08/17 09:45:23;;;;;;;2.92;0.80;;;;;;;;;;4972855;28;20043;-81
2022/08/17 09:47:57;;;;;;;1.17;0.93;;;;;;;;;;4972977;28;20086;-81
2022/08/17 09:50:28;;;;;;;0.77;0.77;;;;;;;;;;4963025;28;20082;-81
2022/08/17 09:53:17;;;;;;;1.83;1.00;;;;;;;;;;4973190;28;20050;-81
2022/08/17 09:55:56;;;;;;;1.38;0.82;;;;;;;;;;4972723;28;20062;-82
2022/08/17 09:58:30;;;;;;;1.25;0.98;;;;;;;;;;4972288;28;20277;-80
2022/08/17 10:01:05;;;;;;;1.05;0.75;;;;;;;;;;4972872;28;20141;-85
2022/08/17 10:03:44;;;;;;;1.38;0.73;;;;;;;;;;4971386;28;20047;-82
2022/08/17 10:06:14;;;;;;;1.38;0.88;;;;;;;;;;4972434;28;20097;-82
2022/08/17 10:08:54;;;;;;;0.95;0.85;;;;;;;;;;4972589;28;20514;-81
2022/08/17 10:12:14;;;;;;;1.05;0.95;;;;;;;;;;4972925;28;20094;-82
2022/08/17 10:14:17;;;;;;;;;;;;;;;;;;4972915;28;20051;-81
2022/08/17 10:17:06;;;;;;;2.65;1.10;;;;;;;;;;4972371;28;19926;-82
2022/08/17 10:19:38;;;;;;;1.10;1.00;;;;;;;;;;4972797;28;20185;-83
2022/08/17 10:28:14;;;;;;;1.58;0.90;;;;;;;;;;4965558;28;20517;-83
2022/08/17 10:30:50;;;;;;;2.58;0.93;;;;;;;;;;4970817;28;20046;-82
2022/08/17 10:33:23;;;;;;;1.27;1.10;;;;;;;;;;4972225;28;20482;-82
2022/08/17 10:35:56;;;;;;;2.50;1.33;;;;;;;;;;4971834;28;20046;-82
2022/08/17 10:38:39;;;;;;;1.43;0.97;;;;;;;;;;4972328;28;20133;-81
2022/08/17 10:41:18;;;;;;;4.78;1.38;;;;;;;;;;4972192;28;20094;-81
2022/08/17 10:43:51;;;;;;;1.70;1.05;;;;;;;;;;4972136;28;20082;-82
2022/08/17 10:46:51;;;;;;;1.23;0.80;;;;;;;;;;4971837;28;20502;-82
2022/08/17 10:49:25;;;;;;;1.52;1.20;;;;;;;;;;4971780;28;20505;-82
2022/08/17 10:51:55;;;;;;;1.08;0.85;;;;;;;;;;4971956;28;20482;-83
2022/08/17 10:54:47;;;;;;;1.60;1.00;;;;;;;;;;4971680;28;20058;-82
2022/08/17 10:57:35;;;;;;;2.03;1.20;;;;;;;;;;4945842;28;20130;-82
2022/08/17 11:00:07;;;;;;;2.25;1.30;;;;;;;;;;4952070;28;20086;-82
2022/08/17 11:02:41;;;;;;;1.92;0.80;;;;;;;;;;4951154;28;20055;-82
2022/08/17 11:05:21;;;;;;;1.33;1.00;;;;;;;;;;4955002;28;20050;-82
2022/08/17 11:08:13;;;;;;;1.10;1.00;;;;;;;;;;4971915;28;20509;-82
2022/08/17 11:10:44;;;;;;;;;;;;;;;;;;4972145;28;20101;-82
2022/08/17 11:13:25;;;;;;;1.20;1.00;;;;;;;;;;4971686;28;19962;-82
2022/08/17 11:15:57;;;;;;;1.33;1.13;;;;;;;;;;4971336;28;20113;-82
2022/08/17 11:18:37;;;;;;;1.15;1.05;;;;;;;;;;4971663;28;20059;-82
2022/08/17 11:21:36;;;;;;;1.17;1.00;;;;;;;;;;4971569;28;20074;-84
2022/08/17 11:24:17;;;;;;;3.20;1.77;;;;;;;;;;4971438;28;20085;-82
2022/08/17 11:26:47;;;;;;;1.90;1.20;;;;;;;;;;4971013;28;20074;-84
2022/08/17 11:29:22;;;;;;;2.20;1.30;;;;;;;;;;4971397;28;20125;-83
2022/08/17 11:32:01;;;;;;;1.48;0.90;;;;;;;;;;4971300;28;20051;-82
2022/08/17 11:34:31;;;;;;;2.97;1.45;;;;;;;;;;4971253;28;20097;-82
2022/08/17 11:37:06;;;;;;;1.67;1.10;;;;;;;;;;4970786;28;20138;-84
2022/08/17 11:39:45;;;;;;;1.90;0.95;;;;;;;;;;4971144;28;20078;-82
2022/08/17 11:42:24;;;;;;;1.67;0.80;;;;;;;;;;4971256;28;20078;-82
2022/08/17 11:44:54;;;;;;;2.03;0.80;;;;;;;;;;4970701;28;20051;-82
2022/08/17 11:53:51;;;;;;;1.90;1.13;;;;;;;;;;4971426;28;20074;-82
2022/08/17 11:56:43;;;;;;;2.30;1.35;;;;;;;;;;4970285;28;20518;-81
2022/08/17 11:59:31;;;;;;;1.65;1.20;;;;;;;;;;4971059;28;20051;-82
2022/08/17 12:02:00;;;;;;;1.92;1.30;;;;;;;;;;4963013;28;20082;-84
2022/08/17 12:04:30;;;;;;;1.88;1.13;;;;;;;;;;4968621;28;20113;-84
2022/08/17 12:07:01;;;;;;;2.15;1.42;;;;;;;;;;4970288;28;20077;-84
2022/08/17 12:09:31;;;;;;;1.88;1.30;;;;;;;;;;4971153;28;20074;-84
2022/08/17 12:12:04;;;;;;;2.40;1.20;;;;;;;;;;4970970;28;20054;-83
2022/08/17 12:14:44;;;;;;;1.75;1.20;;;;;;;;;;4970951;28;20134;-82
2022/08/17 12:17:34;;;;;;;1.75;1.23;;;;;;;;;;4963029;28;20047;-82
2022/08/17 12:20:12;;;;;;;2.03;1.55;;;;;;;;;;4970672;28;20050;-82
2022/08/17 12:22:45;;;;;;;4.30;1.52;;;;;;;;;;4970670;28;20487;-83
2022/08/17 12:25:18;;;;;;;4.25;1.27;;;;;;;;;;4970019;28;20109;-83
2022/08/17 12:27:50;;;;;;;3.00;1.45;;;;;;;;;;4970881;28;20081;-82
2022/08/17 12:30:35;;;;;;;1.60;1.13;;;;;;;;;;4968966;28;20503;-82
2022/08/17 12:33:03;;;;;;;2.33;0.90;;;;;;;;;;4971049;28;20093;-83
2022/08/17 12:35:33;;;;;;;2.95;1.98;;;;;;;;;;4969824;28;20081;-82
2022/08/17 12:38:03;;;;;;;2.90;1.33;;;;;;;;;;4970481;28;20541;-81
2022/08/17 12:40:32;;;;;;;1.90;1.30;;;;;;;;;;4971025;28;20047;-82
2022/08/17 12:43:02;;;;;;;2.08;1.45;;;;;;;;;;4972716;28;20126;-82
2022/08/17 12:45:32;;;;;;;2.45;1.13;;;;;;;;;;4970939;28;20082;-83
2022/08/17 12:48:05;;;;;;;2.03;1.35;;;;;;;;;;4973913;28;20074;-82
2022/08/17 12:50:34;;;;;;;4.95;1.42;;;;;;;;;;4968680;28;20109;-81
2022/08/17 12:53:03;;;;;;;1.70;1.10;;;;;;;;;;4974614;28;20082;-83
2022/08/17 12:55:36;;;;;;;3.50;1.25;;;;;;;;;;4973879;28;20141;-82
2022/08/17 12:58:07;;;;;;;1.27;0.85;;;;;;;;;;4974510;28;20054;-83
2022/08/17 13:00:45;;;;;;;1.98;1.17;;;;;;;;;;4973957;28;20055;-84
2022/08/17 13:03:17;;;;;;;1.63;1.17;;;;;;;;;;4974175;28;20057;-81
2022/08/17 13:05:56;;;;;;;1.20;1.02;;;;;;;;;;4973863;28;20483;-82
2022/08/17 13:08:27;;;;;;;1.80;1.30;;;;;;;;;;4974441;28;20074;-83
2022/08/17 13:10:56;;;;;;;1.60;0.98;;;;;;;;;;4973672;28;20055;-82
2022/08/17 13:13:28;;;;;;;1.52;0.93;;;;;;;;;;4973940;28;20475;-82
2022/08/17 13:15:57;;;;;;;1.67;1.25;;;;;;;;;;4973793;28;20170;-82
2022/08/17 13:18:34;;;;;;;2.05;0.90;;;;;;;;;;4974016;28;20082;-82
2022/08/17 13:21:05;;;;;;;2.35;1.50;;;;;;;;;;4973489;28;20126;-82
2022/08/17 13:23:34;;;;;;;0.80;0.80;;;;;;;;;;4973576;28;20046;-82
2022/08/17 13:26:06;;;;;;;0.98;0.93;;;;;;;;;;4973166;28;20061;-82
2022/08/17 13:28:37;;;;;;;2.75;1.52;;;;;;;;;;4974085;28;20082;-82
2022/08/17 13:31:22;;;;;;;1.08;0.90;;;;;;;;;;4964556;28;20105;-82
2022/08/17 13:33:51;;;;;;;1.55;1.10;;;;;;;;;;4973434;28;20047;-83
2022/08/17 13:36:30;;;;;;;6.05;1.15;;;;;;;;;;4967363;28;20478;-82
2022/08/17 13:39:07;;;;;;;3.60;1.08;;;;;;;;;;4974138;28;20047;-82
2022/08/17 13:41:37;;;;;;;1.10;0.90;;;;;;;;;;4973512;28;20047;-82
2022/08/17 13:44:20;;;;;;;1.40;1.00;;;;;;;;;;4973179;28;20042;-82
2022/08/17 13:46:52;;;;;;;1.30;1.05;;;;;;;;;;4970092;28;20618;-82
2022/08/17 13:49:24;;;;;;;1.85;1.10;;;;;;;;;;4973323;28;20524;-82
2022/08/17 13:52:31;;;;;;;2.75;1.40;;;;;;;;;;4964926;28;20069;-83
2022/08/17 13:55:02;;;;;;;1.83;1.27;;;;;;;;;;4970492;28;20046;-84
2022/08/17 13:57:30;;;;;;;1.95;0.95;;;;;;;;;;4973464;28;20133;-83
2022/08/17 14:00:09;;;;;;;2.03;1.20;;;;;;;;;;4973149;28;20047;-84
2022/08/17 14:02:39;;;;;;;1.63;0.90;;;;;;;;;;4972983;28;20082;-83
2022/08/17 14:05:08;;;;;;;1.88;0.93;;;;;;;;;;4972372;28;20070;-82
2022/08/17 14:07:39;;;;;;;6.93;1.38;;;;;;;;;;4973638;28;20099;-82
2022/08/17 14:10:12;;;;;;;1.27;1.00;;;;;;;;;;4972889;28;20054;-84
2022/08/17 14:12:42;;;;;;;1.75;1.10;;;;;;;;;;4972368;28;20527;-83
2022/08/17 14:15:12;;;;;;;1.85;1.30;;;;;;;;;;4971910;28;20043;-83
2022/08/17 14:17:42;;;;;;;2.88;1.10;;;;;;;;;;4973094;28;20050;-81
2022/08/17 14:20:12;;;;;;;2.53;1.40;;;;;;;;;;4972660;28;20078;-82
2022/08/17 14:22:41;;;;;;;6.65;1.15;;;;;;;;;;4972708;28;20419;-82
2022/08/17 14:25:12;;;;;;;2.63;1.20;;;;;;;;;;4972016;28;20050;-83
2022/08/17 14:27:41;;;;;;;1.58;1.05;;;;;;;;;;4961996;28;20160;-83
2022/08/17 14:30:22;;;;;;;1.10;0.75;;;;;;;;;;4972822;28;20081;-84
2022/08/17 14:32:52;;;;;;;1.85;1.23;;;;;;;;;;4972974;28;20051;-83
2022/08/17 14:35:22;;;;;;;2.78;1.30;;;;;;;;;;4971151;28;20142;-82
2022/08/17 14:37:51;;;;;;;2.00;0.80;;;;;;;;;;4972735;28;20055;-83
2022/08/17 14:40:21;;;;;;;2.67;1.35;;;;;;;;;;4972253;28;20137;-83
2022/08/17 14:42:49;;;;;;;3.75;0.90;;;;;;;;;;4972522;28;20108;-82
2022/08/17 14:45:18;;;;;;;2.38;1.08;;;;;;;;;;4972063;28;20062;-83
2022/08/17 14:48:02;;;;;;;2.67;1.35;;;;;;;;;;4972185;28;20055;-84
2022/08/17 14:50:33;;;;;;;1.13;0.77;;;;;;;;;;4971502;28;20047;-82
2022/08/17 14:53:03;;;;;;;1.83;1.20;;;;;;;;;;4971968;28;20093;-83
2022/08/17 14:55:31;;;;;;;1.45;1.08;;;;;;;;;;4971993;28;20054;-81
2022/08/17 14:58:00;;;;;;;1.95;0.80;;;;;;;;;;4971970;28;20075;-83
2022/08/17 15:00:28;;;;;;;1.52;0.90;;;;;;;;;;4971985;28;20089;-82
2022/08/17 15:02:59;;;;;;;3.03;1.05;;;;;;;;;;4972082;28;20082;-82
2022/08/17 15:05:30;;;;;;;0.85;0.75;;;;;;;;;;4971472;28;20051;-82
2022/08/17 15:07:59;;;;;;;1.95;0.98;;;;;;;;;;4969876;28;20057;-84
2022/08/17 15:10:28;;;;;;;1.30;1.13;;;;;;;;;;4971501;28;20125;-82
2022/08/17 15:12:57;;;;;;;3.40;0.88;;;;;;;;;;4970676;28;20058;-83
2022/08/17 15:15:25;;;;;;;1.50;0.80;;;;;;;;;;4970633;28;20098;-82
2022/08/17 15:17:55;;;;;;;1.88;0.98;;;;;;;;;;4971132;28;20503;-82
2022/08/17 15:20:26;;;;;;;1.42;0.98;;;;;;;;;;4971042;28;20051;-82
2022/08/17 15:22:57;;;;;;;1.00;0.77;;;;;;;;;;4970244;28;20050;-83
2022/08/17 15:25:27;;;;;;;1.00;0.75;;;;;;;;;;4970072;28;20495;-82
2022/08/17 15:27:56;;;;;;;3.55;1.00;;;;;;;;;;4970974;28;20115;-84
2022/08/17 15:30:25;;;;;;;1.55;0.90;;;;;;;;;;4970993;28;20047;-82
2022/08/17 15:32:55;;;;;;;1.33;1.00;;;;;;;;;;4970952;28;20411;-84
2022/08/17 15:35:25;;;;;;;0.98;0.85;;;;;;;;;;4969680;28;20490;-82
2022/08/17 15:37:59;;;;;;;1.17;0.77;;;;;;;;;;4970508;28;20043;-82
2022/08/17 15:40:38;;;;;;;1.25;1.02;;;;;;;;;;4970800;28;20050;-82
2022/08/17 15:43:07;;;;;;;0.93;0.70;;;;;;;;;;4970709;28;20101;-81
2022/08/17 15:45:35;;;;;;;1.88;0.95;;;;;;;;;;4970124;28;20113;-83
2022/08/17 15:48:04;;;;;;;3.70;1.20;;;;;;;;;;4970152;28;20046;-82